Terminal Aerodrome Forecast
Issued by NWS Detroit/Pontiac, MI

Home | Current Version | Previous Version | Text Only | Print | Product List | Glossary On
Versions: 1 2 3 4 5 6 7 8 9 10 11 12 13 14 15 16 17 18 19 20 21 22 23 24 25 26
457
FTUS43 KDTX 231445 AAB
TAFDTW
TAF AMD
KDTW 231445Z 2315/2418 VRB05KT 6SM HZ SCT015 OVC035
      TEMPO 2315/2319 3SM -SHRA BKN015 OVC025
     FM231900 30006KT P6SM VCSH SCT025 OVC040
     FM240000 28005KT 6SM BR VCSH OVC025=

USA.gov is the U.S. government's official web portal to all federal, state and local government web resources and services.